Time;durP1;ratioP1;P1;durP2;ratioP2;P2;SDS_P1;SDS_P2;PMS_P1;PMS_P2;Temp;Humidity;BMP_temperature;BMP_pressure;BME280_temperature;BME280_humidity;BME280_pressure;Samples;Min_cycle;Max_cycle;Signal;HPM_P1;HPM_P2
2023/04/05 00:00:41;;;;;;;19.58;11.27;;;;;;;1.63;94.84;102442.53;4955153;28;20030;-74
2023/04/05 00:03:08;;;;;;;18.67;10.65;;;;;;;1.58;94.02;102445.75;4954244;28;20399;-75
2023/04/05 00:05:35;;;;;;;19.50;11.10;;;;;;;1.60;95.45;102459.50;4953439;28;20019;-75
2023/04/05 00:08:02;;;;;;;18.15;11.35;;;;;;;1.49;95.51;102453.09;4955067;28;20086;-74
2023/04/05 00:10:31;;;;;;;18.52;11.35;;;;;;;1.39;95.66;102441.56;4953018;28;20117;-75
2023/04/05 00:12:57;;;;;;;18.73;10.85;;;;;;;1.44;96.45;102452.94;4954617;28;20023;-74
2023/04/05 00:15:23;;;;;;;14.88;10.07;;;;;;;1.39;97.25;102457.88;4953411;28;20086;-75
2023/04/05 00:17:49;;;;;;;15.60;10.45;;;;;;;1.40;97.55;102459.59;4953786;28;20027;-74
2023/04/05 00:20:14;;;;;;;18.75;11.30;;;;;;;1.34;97.96;102454.25;4954376;28;20034;-74
2023/04/05 00:22:43;;;;;;;17.52;11.02;;;;;;;1.27;98.09;102436.81;4953427;28;20027;-74
2023/04/05 00:25:09;;;;;;;19.48;11.82;;;;;;;1.30;98.49;102457.50;4953093;28;20020;-74
2023/04/05 00:27:34;;;;;;;15.82;10.23;;;;;;;1.22;98.33;102440.91;4954202;28;20037;-74
2023/04/05 00:30:00;;;;;;;19.42;11.32;;;;;;;1.27;98.28;102443.66;4952742;28;20027;-75
2023/04/05 00:32:25;;;;;;;18.48;11.55;;;;;;;1.22;98.19;102442.59;4953972;28;20038;-74
2023/04/05 00:34:51;;;;;;;15.65;10.82;;;;;;;1.15;99.17;102437.22;4954193;28;20032;-75
2023/04/05 00:37:16;;;;;;;18.80;10.98;;;;;;;1.10;99.67;102438.69;4943532;28;20098;-74
2023/04/05 00:39:44;;;;;;;15.45;10.18;;;;;;;1.03;100.00;102430.69;4954158;28;20058;-74
2023/04/05 00:42:09;;;;;;;15.52;10.50;;;;;;;0.98;100.00;102422.81;4954616;28;20019;-74
2023/04/05 00:44:35;;;;;;;16.85;10.70;;;;;;;1.01;100.00;102437.44;4953375;28;20438;-74
2023/04/05 00:47:05;;;;;;;20.30;11.57;;;;;;;0.88;100.00;102428.34;4954422;28;20042;-74
2023/04/05 00:49:32;;;;;;;21.20;10.13;;;;;;;0.85;100.00;102435.94;4953202;28;20140;-74
2023/04/05 00:51:58;;;;;;;17.98;10.18;;;;;;;0.77;100.00;102437.31;4953719;28;20030;-74
2023/04/05 00:54:28;;;;;;;15.60;9.70;;;;;;;0.68;100.00;102422.38;4954203;28;20060;-75
2023/04/05 00:56:58;;;;;;;16.92;10.70;;;;;;;0.54;100.00;102421.81;4954340;28;20058;-74
2023/04/05 00:59:24;;;;;;;17.85;10.32;;;;;;;0.53;100.00;102416.63;4953958;28;20023;-74
2023/04/05 01:01:59;;;;;;;17.55;10.80;;;;;;;0.43;100.00;102411.09;4954288;28;20054;-74
2023/04/05 01:04:26;;;;;;;17.77;10.45;;;;;;;0.52;100.00;102433.69;4969518;28;20046;-74
2023/04/05 01:07:11;;;;;;;18.83;10.70;;;;;;;0.46;100.00;102430.88;4972443;28;20360;-74
2023/04/05 01:09:57;;;;;;;20.65;11.23;;;;;;;0.36;100.00;102429.59;4973525;28;20034;-74
2023/04/05 01:12:26;;;;;;;20.30;10.80;;;;;;;0.34;100.00;102433.78;4972342;28;20844;-74
2023/04/05 01:14:53;;;;;;;18.13;10.82;;;;;;;0.32;100.00;102437.09;4973428;28;20019;-75
2023/04/05 01:17:22;;;;;;;19.08;10.93;;;;;;;0.29;100.00;102431.81;4973593;28;20085;-75
2023/04/05 01:20:07;;;;;;;18.23;10.77;;;;;;;0.18;100.00;102429.66;4972468;28;20022;-75
2023/04/05 01:22:54;;;;;;;16.88;10.35;;;;;;;0.14;100.00;102434.59;4973195;28;20379;-75
2023/04/05 01:25:53;;;;;;;18.98;10.38;;;;;;;0.05;100.00;102426.50;4973401;28;20054;-75
2023/04/05 01:28:48;;;;;;;17.25;11.18;;;;;;;-0.02;100.00;102426.22;4972590;28;20046;-75
2023/04/05 01:31:31;;;;;;;15.63;9.73;;;;;;;-0.08;100.00;102422.50;4972840;28;20038;-74
2023/04/05 01:34:22;;;;;;;18.90;11.55;;;;;;;-0.24;100.00;102408.97;4971285;28;20022;-75
2023/04/05 01:36:56;;;;;;;19.80;10.43;;;;;;;-0.25;100.00;102414.91;4971512;28;20051;-75
2023/04/05 01:39:24;;;;;;;16.15;9.85;;;;;;;-0.27;100.00;102407.94;4970525;28;20027;-75
2023/04/05 01:41:50;;;;;;;18.65;10.20;;;;;;;-0.27;100.00;102408.81;4972181;28;20011;-75
2023/04/05 01:44:15;;;;;;;18.88;10.95;;;;;;;-0.38;100.00;102401.47;4973187;28;20485;-75
2023/04/05 01:46:41;;;;;;;17.05;10.88;;;;;;;-0.43;100.00;102413.19;4972896;28;20027;-75
2023/04/05 01:49:06;;;;;;;17.02;11.07;;;;;;;-0.49;100.00;102409.53;4971824;28;20027;-75
2023/04/05 01:51:32;;;;;;;17.27;10.90;;;;;;;-0.52;100.00;102393.16;4972229;28;20502;-75
2023/04/05 01:53:57;;;;;;;16.08;10.70;;;;;;;-0.44;100.00;102399.50;4973165;28;20459;-75
2023/04/05 01:56:22;;;;;;;16.98;10.57;;;;;;;-0.40;100.00;102403.94;4972407;28;20027;-75
2023/04/05 01:58:47;;;;;;;19.05;10.52;;;;;;;-0.57;100.00;102380.09;4972647;28;20383;-75
2023/04/05 02:01:13;;;;;;;16.63;10.75;;;;;;;-0.49;100.00;102388.16;4975383;28;20054;-75
2023/04/05 02:03:38;;;;;;;18.48;10.20;;;;;;;-0.48;100.00;102403.59;4975342;28;20400;-75
2023/04/05 02:06:04;;;;;;;16.00;10.00;;;;;;;-0.47;100.00;102404.47;4976597;28;20050;-75
2023/04/05 02:08:29;;;;;;;17.02;10.55;;;;;;;-0.55;100.00;102382.75;4975524;28;20111;-75
2023/04/05 02:10:55;;;;;;;18.17;10.75;;;;;;;-0.53;100.00;102404.19;4981288;28;20113;-75
2023/04/05 02:13:21;;;;;;;16.25;10.95;;;;;;;-0.53;100.00;102396.50;4976144;28;20027;-75
2023/04/05 02:15:49;;;;;;;16.25;10.98;;;;;;;-0.53;100.00;102399.06;4971444;28;20533;-75
2023/04/05 02:18:20;;;;;;;17.23;10.55;;;;;;;-0.58;100.00;102388.63;4975023;28;20054;-75
2023/04/05 02:20:46;;;;;;;18.70;10.93;;;;;;;-0.59;100.00;102391.09;4972427;28;20403;-75
2023/04/05 02:23:11;;;;;;;18.75;11.00;;;;;;;-0.61;100.00;102387.59;4974413;28;20023;-75
2023/04/05 02:25:36;;;;;;;18.48;10.63;;;;;;;-0.59;100.00;102384.31;4974842;28;20031;-75
2023/04/05 02:28:02;;;;;;;17.58;10.57;;;;;;;-0.66;100.00;102374.56;4973482;28;20475;-75
2023/04/05 02:30:27;;;;;;;16.50;10.80;;;;;;;-0.68;100.00;102383.88;4974209;28;20049;-75
2023/04/05 02:32:54;;;;;;;15.38;10.70;;;;;;;-0.71;100.00;102386.28;4975481;28;20027;-75
2023/04/05 02:35:20;;;;;;;18.73;10.05;;;;;;;-0.75;100.00;102385.25;4975586;28;20046;-75
2023/04/05 02:37:45;;;;;;;16.02;10.23;;;;;;;-0.72;100.00;102387.97;4975120;28;20419;-75
2023/04/05 02:40:13;;;;;;;22.05;10.95;;;;;;;-0.75;100.00;102390.38;4974049;28;20026;-75
2023/04/05 02:42:39;;;;;;;23.20;11.10;;;;;;;-0.80;100.00;102388.41;4975200;28;20034;-75
2023/04/05 02:45:05;;;;;;;15.57;10.57;;;;;;;-0.86;100.00;102375.31;4974219;28;20015;-75
2023/04/05 02:47:30;;;;;;;16.65;10.40;;;;;;;-0.84;100.00;102384.81;4975150;28;20034;-75
2023/04/05 02:49:55;;;;;;;19.52;11.38;;;;;;;-0.86;100.00;102391.53;4975177;28;20386;-75
2023/04/05 02:52:21;;;;;;;20.73;11.18;;;;;;;-0.89;100.00;102386.25;4974341;28;20034;-75
2023/04/05 02:54:46;;;;;;;19.20;10.50;;;;;;;-0.95;100.00;102384.31;4974305;28;20065;-75
2023/04/05 02:57:12;;;;;;;17.50;10.93;;;;;;;-0.99;100.00;102391.75;4975054;28;20037;-75
2023/04/05 02:59:38;;;;;;;19.55;11.73;;;;;;;-1.02;100.00;102378.81;4974204;28;20034;-75
2023/04/05 03:02:05;;;;;;;18.55;11.50;;;;;;;-1.06;100.00;102380.34;4974250;28;20027;-76
2023/04/05 03:04:33;;;;;;;21.23;11.23;;;;;;;-1.04;100.00;102398.34;4965210;28;20047;-75
2023/04/05 03:07:01;;;;;;;18.92;11.13;;;;;;;-1.08;100.00;102373.38;4957059;28;20034;-75
2023/04/05 03:09:28;;;;;;;21.10;11.02;;;;;;;-1.08;100.00;102383.63;4957666;28;20031;-75
2023/04/05 03:11:53;;;;;;;23.70;12.23;;;;;;;-1.14;100.00;102379.09;4967256;28;20490;-75
2023/04/05 03:14:18;;;;;;;21.35;12.98;;;;;;;-1.19;100.00;102371.19;4956578;28;20078;-75
2023/04/05 03:16:45;;;;;;;18.77;11.77;;;;;;;-1.17;100.00;102365.28;4960544;28;20052;-75
2023/04/05 03:19:10;;;;;;;20.35;13.20;;;;;;;-1.19;100.00;102366.06;4969724;28;20117;-75
2023/04/05 03:21:36;;;;;;;24.45;13.05;;;;;;;-1.16;100.00;102362.78;4962687;28;20114;-75
2023/04/05 03:24:01;;;;;;;19.20;12.07;;;;;;;-1.30;100.00;102339.09;4953832;28;20045;-75
2023/04/05 03:26:27;;;;;;;18.73;11.93;;;;;;;-1.26;100.00;102351.22;4954765;28;20099;-75
2023/04/05 03:28:52;;;;;;;19.52;11.80;;;;;;;-1.28;100.00;102367.28;4965382;28;20041;-75
2023/04/05 03:31:17;;;;;;;20.10;11.65;;;;;;;-1.32;100.00;102360.28;4949508;28;20054;-75
2023/04/05 03:33:42;;;;;;;21.05;13.18;;;;;;;-1.37;100.00;102352.38;4954960;28;20023;-75
2023/04/05 03:36:09;;;;;;;22.55;13.57;;;;;;;-1.37;100.00;102360.06;4955693;28;20439;-75
2023/04/05 03:38:34;;;;;;;20.98;12.70;;;;;;;-1.36;100.00;102363.50;4955397;28;20023;-75
2023/04/05 03:41:01;;;;;;;21.45;12.85;;;;;;;-1.46;100.00;102336.59;4955029;28;20382;-75
2023/04/05 03:43:26;;;;;;;21.60;12.93;;;;;;;-1.30;100.00;102353.56;4955638;28;20024;-75
2023/04/05 03:45:52;;;;;;;23.50;13.50;;;;;;;-1.32;100.00;102350.91;4954559;28;20123;-75
2023/04/05 03:48:19;;;;;;;19.85;12.73;;;;;;;-1.35;100.00;102355.88;4954866;28;20031;-75
2023/04/05 03:50:45;;;;;;;21.88;12.20;;;;;;;-1.36;100.00;102353.25;4955329;28;20031;-75
2023/04/05 03:53:10;;;;;;;21.90;12.13;;;;;;;-1.42;100.00;102346.16;4954820;28;20501;-75
2023/04/05 03:55:36;;;;;;;23.45;12.27;;;;;;;-1.45;100.00;102346.88;4947259;28;20106;-75
2023/04/05 03:58:03;;;;;;;20.83;12.10;;;;;;;-1.50;100.00;102339.78;4955535;28;20031;-75
2023/04/05 04:00:29;;;;;;;25.90;12.63;;;;;;;-1.45;100.00;102344.31;4954994;28;20086;-75
2023/04/05 04:02:54;;;;;;;21.33;11.82;;;;;;;-1.45;100.00;102346.00;4957603;28;20047;-75
2023/04/05 04:05:20;;;;;;;22.15;13.15;;;;;;;-1.46;100.00;102337.44;4974425;28;20030;-75
2023/04/05 04:07:46;;;;;;;20.52;12.57;;;;;;;-1.51;100.00;102332.91;4974142;28;20030;-75
2023/04/05 04:10:13;;;;;;;20.85;12.93;;;;;;;-1.54;100.00;102333.63;4973404;28;20411;-75
2023/04/05 04:12:38;;;;;;;22.83;12.90;;;;;;;-1.48;100.00;102343.28;4974101;28;20023;-75
2023/04/05 04:15:04;;;;;;;18.35;11.25;;;;;;;-1.53;100.00;102342.19;4973679;28;20026;-75
2023/04/05 04:17:32;;;;;;;24.90;13.07;;;;;;;-1.52;100.00;102336.28;4973812;28;20022;-75
2023/04/05 04:19:59;;;;;;;21.92;11.88;;;;;;;-1.58;100.00;102326.59;4963812;28;20043;-75
2023/04/05 04:22:32;;;;;;;18.05;11.18;;;;;;;-1.58;100.00;102326.59;4973675;28;20106;-75
2023/04/05 04:25:01;;;;;;;19.30;11.70;;;;;;;-1.59;100.00;102326.53;4974204;28;20038;-76
2023/04/05 04:27:28;;;;;;;21.77;12.35;;;;;;;-1.61;100.00;102326.44;4974168;28;20479;-75
2023/04/05 04:29:55;;;;;;;18.85;11.85;;;;;;;-1.57;100.00;102333.50;4973299;28;20066;-75
2023/04/05 04:32:25;;;;;;;20.35;12.90;;;;;;;-1.62;100.00;102323.84;4974368;28;20027;-75
2023/04/05 04:34:54;;;;;;;21.48;12.13;;;;;;;-1.61;100.00;102330.69;4973920;28;20023;-75
2023/04/05 04:37:21;;;;;;;19.95;11.82;;;;;;;-1.70;100.00;102329.44;4963086;28;20019;-75
2023/04/05 04:39:47;;;;;;;19.63;12.05;;;;;;;-1.68;100.00;102338.06;4973738;28;20034;-75
2023/04/05 04:42:13;;;;;;;19.33;12.65;;;;;;;-1.67;100.00;102331.25;4974107;28;20096;-75
2023/04/05 04:44:41;;;;;;;22.05;14.43;;;;;;;-1.68;100.00;102332.94;4972908;28;20077;-75
2023/04/05 04:47:12;;;;;;;21.65;13.07;;;;;;;-1.66;100.00;102336.47;4973929;28;20054;-75
2023/04/05 04:49:38;;;;;;;22.15;13.38;;;;;;;-1.67;100.00;102332.16;4973747;28;20081;-75
2023/04/05 04:52:04;;;;;;;20.63;12.57;;;;;;;-1.68;100.00;102337.19;4971031;28;20456;-75
2023/04/05 04:54:32;;;;;;;20.15;11.98;;;;;;;-1.73;100.00;102326.75;4965007;28;20073;-75
2023/04/05 04:56:58;;;;;;;23.30;12.80;;;;;;;-1.75;100.00;102327.44;4965456;28;20051;-75
2023/04/05 04:59:27;;;;;;;23.48;12.90;;;;;;;-1.76;100.00;102331.69;4960632;28;20109;-76
2023/04/05 05:01:52;;;;;;;21.00;13.23;;;;;;;-1.72;100.00;102333.59;4957089;28;20502;-75
2023/04/05 05:04:17;;;;;;;22.00;14.70;;;;;;;-1.74;100.00;102330.06;4971754;28;20082;-75
2023/04/05 05:06:43;;;;;;;26.35;13.48;;;;;;;-1.77;100.00;102329.91;4972205;28;20035;-75
2023/04/05 05:09:08;;;;;;;22.73;13.40;;;;;;;-1.76;100.00;102335.94;4972342;28;20037;-75
2023/04/05 05:11:33;;;;;;;20.67;12.70;;;;;;;-1.77;100.00;102331.59;4972754;28;20027;-75
2023/04/05 05:13:59;;;;;;;24.17;14.32;;;;;;;-1.75;100.00;102337.69;4973592;28;20026;-75
2023/04/05 05:16:25;;;;;;;24.65;13.93;;;;;;;-1.75;100.00;102338.56;4973119;28;20380;-75
2023/04/05 05:18:54;;;;;;;23.33;13.90;;;;;;;-1.72;100.00;102342.94;4971705;28;20062;-75
2023/04/05 05:21:19;;;;;;;23.90;14.05;;;;;;;-1.75;100.00;102325.78;4972561;28;20034;-75
2023/04/05 05:23:45;;;;;;;24.27;13.32;;;;;;;-1.74;100.00;102330.06;4972943;28;20026;-75
2023/04/05 05:26:12;;;;;;;25.10;13.65;;;;;;;-1.75;100.00;102320.66;4972735;28;20035;-75
2023/04/05 05:28:37;;;;;;;22.17;13.32;;;;;;;-1.66;100.00;102336.47;4973129;28;20034;-75
2023/04/05 05:31:03;;;;;;;22.67;12.65;;;;;;;-1.62;100.00;102326.38;4973624;28;20411;-75
2023/04/05 05:33:28;;;;;;;23.88;13.57;;;;;;;-1.66;100.00;102315.13;4972339;28;20042;-75
2023/04/05 05:35:53;;;;;;;24.25;14.23;;;;;;;-1.66;100.00;102305.78;4975168;28;20023;-75
2023/04/05 05:38:19;;;;;;;22.45;13.10;;;;;;;-1.52;100.00;102320.94;4977313;28;20034;-75
2023/04/05 05:40:44;;;;;;;21.50;13.18;;;;;;;-1.49;100.00;102316.84;4976022;28;20431;-75
2023/04/05 05:43:10;;;;;;;22.63;14.07;;;;;;;-1.51;100.00;102310.75;4976819;28;20039;-75
2023/04/05 05:45:35;;;;;;;25.50;13.10;;;;;;;-1.38;100.00;102326.72;4976859;28;20050;-75
2023/04/05 05:48:01;;;;;;;23.38;13.27;;;;;;;-1.34;100.00;102318.38;4976150;28;20382;-75
2023/04/05 05:50:26;;;;;;;29.08;14.55;;;;;;;-1.30;100.00;102321.19;4976954;28;20038;-75
2023/04/05 05:52:52;;;;;;;25.88;13.77;;;;;;;-1.23;100.00;102320.66;4976370;28;20463;-75
2023/04/05 05:55:17;;;;;;;25.75;14.10;;;;;;;-1.18;100.00;102323.44;4976237;28;20027;-75
2023/04/05 05:57:42;;;;;;;23.20;13.65;;;;;;;-1.15;100.00;102321.03;4976944;28;20038;-75
2023/04/05 06:00:09;;;;;;;21.05;13.65;;;;;;;-1.05;100.00;102330.03;4976850;28;20430;-75
2023/04/05 06:02:35;;;;;;;24.98;13.18;;;;;;;-1.01;100.00;102327.69;4975550;28;20019;-75
2023/04/05 06:05:01;;;;;;;26.45;13.70;;;;;;;-0.97;100.00;102329.59;4976463;28;20407;-75
2023/04/05 06:07:26;;;;;;;22.48;12.52;;;;;;;-0.92;100.00;102326.34;4976515;28;20141;-75
2023/04/05 06:09:51;;;;;;;24.17;13.70;;;;;;;-0.83;100.00;102326.78;4975992;28;20081;-75
2023/04/05 06:12:22;;;;;;;24.33;13.85;;;;;;;-0.75;100.00;102336.59;4976604;28;20045;-75
2023/04/05 06:14:47;;;;;;;28.15;14.73;;;;;;;-0.69;100.00;102322.31;4975685;28;20122;-75
2023/04/05 06:17:12;;;;;;;23.90;14.10;;;;;;;-0.61;100.00;102331.25;4974332;28;20162;-75
2023/04/05 06:19:38;;;;;;;32.67;14.93;;;;;;;-0.54;100.00;102330.72;4975121;28;20026;-75
2023/04/05 06:22:03;;;;;;;22.45;14.07;;;;;;;-0.46;100.00;102339.59;4969606;28;20031;-75
2023/04/05 06:24:30;;;;;;;28.40;15.07;;;;;;;-0.42;100.00;102336.41;4974440;28;20055;-74
2023/04/05 06:26:57;;;;;;;27.65;14.75;;;;;;;-0.30;100.00;102331.78;4969856;28;20023;-75
2023/04/05 06:29:22;;;;;;;33.90;15.40;;;;;;;-0.27;100.00;102326.81;4958608;28;20039;-74
2023/04/05 06:31:47;;;;;;;24.77;14.73;;;;;;;-0.15;100.00;102326.50;4975817;28;20378;-74
2023/04/05 06:34:13;;;;;;;30.35;16.10;;;;;;;-0.04;100.00;102324.38;4975893;28;20036;-74
2023/04/05 06:36:38;;;;;;;24.00;15.63;;;;;;;-0.06;100.00;102308.94;4974856;28;20073;-75
2023/04/05 06:39:03;;;;;;;23.75;15.75;;;;;;;0.12;100.00;102326.81;4976409;28;20114;-75
2023/04/05 06:41:29;;;;;;;25.35;15.52;;;;;;;0.18;100.00;102329.63;4975511;28;20033;-75
2023/04/05 06:43:55;;;;;;;31.63;16.27;;;;;;;0.31;100.00;102327.59;4974485;28;20061;-74
2023/04/05 06:46:20;;;;;;;25.83;16.70;;;;;;;0.41;100.00;102324.59;4970794;28;20027;-75
2023/04/05 06:48:47;;;;;;;26.38;16.50;;;;;;;0.50;100.00;102324.13;4972417;28;20038;-75
2023/04/05 06:51:12;;;;;;;25.13;14.38;;;;;;;0.61;100.00;102333.13;4974514;28;20034;-75
2023/04/05 06:53:38;;;;;;;26.73;14.68;;;;;;;0.66;100.00;102323.94;4971576;28;20383;-75
2023/04/05 06:56:03;;;;;;;22.42;14.27;;;;;;;0.76;100.00;102327.75;4974575;28;20399;-75
2023/04/05 06:58:29;;;;;;;24.77;13.88;;;;;;;0.87;100.00;102331.59;4974847;28;20062;-75
2023/04/05 07:00:54;;;;;;;23.15;14.15;;;;;;;0.96;100.00;102342.25;4975584;28;20173;-75
2023/04/05 07:03:19;;;;;;;23.70;13.60;;;;;;;1.01;100.00;102325.31;4973802;28;20136;-75
2023/04/05 07:05:52;;;;;;;24.65;13.82;;;;;;;1.17;100.00;102335.38;4957242;28;20546;-74
2023/04/05 07:08:19;;;;;;;20.23;14.75;;;;;;;1.24;100.00;102331.34;4956315;28;20039;-75
2023/04/05 07:10:45;;;;;;;26.98;14.88;;;;;;;1.35;100.00;102326.63;4955234;28;20515;-74
2023/04/05 07:13:10;;;;;;;23.77;14.85;;;;;;;1.30;100.00;102310.16;4959402;28;20026;-75
2023/04/05 07:15:35;;;;;;;24.27;13.68;;;;;;;1.46;100.00;102316.75;4960813;28;20546;-75
2023/04/05 07:18:01;;;;;;;23.35;13.23;;;;;;;1.59;99.72;102330.13;4955218;28;20027;-74
2023/04/05 07:20:26;;;;;;;23.83;13.88;;;;;;;1.72;99.39;102328.00;4946657;28;20102;-74
2023/04/05 07:22:53;;;;;;;20.90;13.80;;;;;;;1.81;98.00;102329.22;4952676;28;20031;-75
2023/04/05 07:25:19;;;;;;;26.02;13.10;;;;;;;1.95;96.57;102337.41;4945567;28;20039;-75
2023/04/05 07:27:44;;;;;;;27.55;13.88;;;;;;;2.04;97.51;102337.75;4950973;28;20027;-75
2023/04/05 07:30:10;;;;;;;21.83;13.57;;;;;;;2.05;96.40;102333.47;4959090;28;20510;-75
2023/04/05 07:32:35;;;;;;;19.80;12.50;;;;;;;2.18;94.84;102324.50;4955070;28;20039;-74
2023/04/05 07:35:00;;;;;;;21.85;13.20;;;;;;;2.31;94.42;102326.66;4955762;28;20538;-74
2023/04/05 07:37:26;;;;;;;24.45;13.50;;;;;;;2.30;93.54;102309.47;4962234;28;20027;-74
2023/04/05 07:39:51;;;;;;;21.38;13.85;;;;;;;2.49;92.42;102329.88;4954316;28;20632;-73
2023/04/05 07:42:20;;;;;;;20.77;13.27;;;;;;;2.53;90.82;102324.00;4966166;28;20033;-74
2023/04/05 07:44:45;;;;;;;21.98;11.90;;;;;;;2.68;90.49;102325.31;4968797;28;20041;-73
2023/04/05 07:47:11;;;;;;;18.58;11.05;;;;;;;2.76;88.57;102322.16;4953147;28;20110;-73
2023/04/05 07:49:36;;;;;;;18.77;11.40;;;;;;;2.81;87.00;102315.47;4954022;28;20046;-73
2023/04/05 07:52:02;;;;;;;18.98;10.30;;;;;;;2.93;86.07;102314.09;4955378;28;20035;-73
2023/04/05 07:54:30;;;;;;;18.35;10.05;;;;;;;3.07;83.71;102317.09;4954185;28;20534;-73
2023/04/05 07:56:57;;;;;;;19.20;10.68;;;;;;;3.21;85.36;102315.84;4955265;28;20023;-73
2023/04/05 07:59:22;;;;;;;15.27;10.10;;;;;;;3.32;85.82;102309.28;4953743;28;20027;-73
2023/04/05 08:01:47;;;;;;;15.75;10.15;;;;;;;3.42;81.97;102306.16;4953998;28;20110;-73
2023/04/05 08:04:13;;;;;;;19.13;9.60;;;;;;;3.52;80.53;102308.16;4961915;28;20138;-73
2023/04/05 08:06:38;;;;;;;19.27;10.55;;;;;;;3.62;82.14;102319.59;4974130;28;20045;-73
2023/04/05 08:09:04;;;;;;;18.70;10.57;;;;;;;3.72;80.95;102316.47;4973643;28;20058;-73
2023/04/05 08:11:31;;;;;;;15.65;9.40;;;;;;;3.82;78.28;102315.00;4974389;28;20117;-73
2023/04/05 08:13:56;;;;;;;15.50;9.80;;;;;;;3.90;75.96;102305.78;4974044;28;20165;-73
2023/04/05 08:16:21;;;;;;;16.92;9.65;;;;;;;4.01;77.48;102310.38;4973687;28;20113;-73
2023/04/05 08:18:47;;;;;;;18.50;9.88;;;;;;;4.09;76.55;102308.88;4973984;28;20035;-73
2023/04/05 08:21:12;;;;;;;13.13;8.55;;;;;;;4.23;73.07;102312.69;4973537;28;20039;-73
2023/04/05 08:23:37;;;;;;;15.95;9.43;;;;;;;4.32;73.22;102315.50;4973888;28;20031;-73
2023/04/05 08:26:03;;;;;;;15.10;9.82;;;;;;;4.41;70.69;102308.00;4974233;28;20061;-73
2023/04/05 08:28:28;;;;;;;14.50;9.02;;;;;;;4.41;67.41;102300.25;4973034;28;20026;-73
2023/04/05 08:30:55;;;;;;;17.88;9.40;;;;;;;4.60;70.55;102311.03;4974141;28;20034;-73
2023/04/05 08:33:20;;;;;;;17.20;9.52;;;;;;;4.62;69.28;102306.78;4973896;28;20031;-74
2023/04/05 08:35:46;;;;;;;14.25;9.60;;;;;;;4.63;68.66;102305.94;4972997;28;20027;-73
2023/04/05 08:38:11;;;;;;;16.13;9.20;;;;;;;4.73;65.66;102300.16;4973906;28;20118;-73
2023/04/05 08:40:42;;;;;;;13.23;7.97;;;;;;;4.86;60.40;102297.00;4973610;28;20031;-73
2023/04/05 08:43:21;;;;;;;15.15;7.57;;;;;;;4.91;62.49;102289.38;4973084;28;20063;-73
2023/04/05 08:45:51;;;;;;;14.68;8.57;;;;;;;5.12;60.74;102296.75;4973577;28;20499;-73
2023/04/05 08:48:18;;;;;;;12.57;8.15;;;;;;;5.38;61.02;102303.34;4973721;28;20078;-73
2023/04/05 08:50:54;;;;;;;15.77;8.05;;;;;;;5.45;59.61;102280.19;4972832;28;20390;-73
2023/04/05 08:53:20;;;;;;;11.85;7.88;;;;;;;5.70;59.45;102297.09;4973496;28;20018;-73
2023/04/05 08:55:55;;;;;;;10.95;7.25;;;;;;;5.79;58.16;102298.16;4973385;28;20037;-73
2023/04/05 08:58:23;;;;;;;13.73;6.70;;;;;;;6.01;54.58;102301.16;4973082;28;20027;-73
2023/04/05 09:00:50;;;;;;;10.07;6.50;;;;;;;6.15;54.89;102302.31;4973695;28;20026;-73
2023/04/05 09:03:39;;;;;;;10.35;6.68;;;;;;;6.30;53.50;102294.78;4973485;28;20030;-73
2023/04/05 09:06:08;;;;;;;10.27;6.60;;;;;;;6.32;52.50;102282.75;4973541;28;20023;-73
2023/04/05 09:08:33;;;;;;;15.50;7.20;;;;;;;6.37;51.96;102293.19;4973420;28;20033;-73
2023/04/05 09:10:59;;;;;;;14.63;7.07;;;;;;;6.52;51.31;102284.81;4974865;28;20034;-73
2023/04/05 09:13:24;;;;;;;13.18;7.32;;;;;;;6.62;51.78;102281.50;4977503;28;20027;-73
2023/04/05 09:15:50;;;;;;;11.18;7.10;;;;;;;6.74;50.31;102283.44;4977369;28;20023;-73
2023/04/05 09:18:16;;;;;;;10.65;7.05;;;;;;;6.75;52.15;102275.66;4976892;28;20027;-73
2023/04/05 09:20:41;;;;;;;12.93;7.53;;;;;;;6.87;51.38;102284.50;4977425;28;20493;-73
2023/04/05 09:23:06;;;;;;;11.75;7.72;;;;;;;6.95;52.16;102277.69;4977600;28;20019;-73
2023/04/05 09:25:41;;;;;;;10.07;6.65;;;;;;;7.05;49.95;102258.81;4976374;28;20041;-73
2023/04/05 09:28:07;;;;;;;14.00;7.68;;;;;;;7.29;51.33;102273.81;4977167;28;20027;-73
2023/04/05 09:30:34;;;;;;;15.95;7.75;;;;;;;7.36;47.60;102267.00;4977000;28;20030;-73
2023/04/05 09:32:59;;;;;;;11.52;7.18;;;;;;;7.38;48.96;102260.09;4976581;28;20038;-75
2023/04/05 09:35:27;;;;;;;12.75;8.30;;;;;;;7.47;49.00;102271.47;4977492;28;20019;-73
2023/04/05 09:38:00;;;;;;;12.02;7.43;;;;;;;7.60;49.86;102275.09;4974334;28;20138;-73
2023/04/05 09:40:44;;;;;;;11.00;7.28;;;;;;;7.64;48.48;102263.88;4976495;28;20402;-73
2023/04/05 09:43:32;;;;;;;12.32;7.55;;;;;;;7.69;47.29;102266.53;4977048;28;20027;-73
2023/04/05 09:45:58;;;;;;;11.23;7.35;;;;;;;7.90;47.23;102266.75;4974889;28;20473;-73
2023/04/05 09:48:46;;;;;;;12.18;7.25;;;;;;;7.95;48.33;102261.63;4977041;28;20099;-74
2023/04/05 09:51:13;;;;;;;12.55;7.53;;;;;;;7.99;48.27;102271.19;4977163;28;20031;-73
2023/04/05 09:53:58;;;;;;;15.43;7.72;;;;;;;8.00;47.52;102269.44;4975624;28;20065;-73
2023/04/05 09:56:25;;;;;;;11.43;7.55;;;;;;;7.97;47.12;102259.88;4977209;28;20027;-73
2023/04/05 09:58:51;;;;;;;14.38;7.53;;;;;;;8.07;45.91;102261.72;4975548;28;20106;-73
2023/04/05 10:01:18;;;;;;;14.63;7.40;;;;;;;8.10;44.63;102266.94;4976233;28;20118;-73
2023/04/05 10:03:48;;;;;;;11.57;8.05;;;;;;;8.10;43.59;102250.50;4972135;28;20035;-74
2023/04/05 10:06:15;;;;;;;16.48;8.63;;;;;;;8.26;45.14;102256.69;4957655;28;20062;-73
2023/04/05 10:08:40;;;;;;;13.73;8.57;;;;;;;8.35;45.88;102249.84;4956279;28;20031;-73
2023/04/05 10:11:07;;;;;;;12.77;8.35;;;;;;;8.44;45.47;102249.97;4957559;28;20451;-73
2023/04/05 10:13:33;;;;;;;11.73;8.20;;;;;;;8.49;43.42;102244.78;4957107;28;20062;-73
2023/04/05 10:16:00;;;;;;;12.65;8.38;;;;;;;8.55;43.43;102241.38;4957387;28;20428;-73
2023/04/05 10:18:38;;;;;;;10.50;7.63;;;;;;;8.54;42.75;102232.72;4968741;28;20035;-73
2023/04/05 10:21:04;;;;;;;13.80;7.75;;;;;;;8.63;41.80;102222.38;4955345;28;20042;-73
2023/04/05 10:23:33;;;;;;;13.75;8.63;;;;;;;8.74;41.17;102238.03;4956796;28;20475;-73
2023/04/05 10:26:12;;;;;;;12.82;8.00;;;;;;;8.77;41.70;102237.22;4956787;28;20042;-74
2023/04/05 10:28:46;;;;;;;11.88;8.18;;;;;;;8.83;43.32;102213.84;4956084;28;20030;-73
2023/04/05 10:31:50;;;;;;;13.13;8.30;;;;;;;9.09;42.69;102230.44;4955569;28;20034;-73
2023/04/05 10:34:32;;;;;;;13.95;8.70;;;;;;;9.08;41.66;102228.69;4962675;28;20109;-73
2023/04/05 10:37:00;;;;;;;13.38;9.70;;;;;;;9.13;42.14;102226.13;4955881;28;20027;-73
2023/04/05 10:39:34;;;;;;;14.25;9.18;;;;;;;9.22;42.62;102223.56;4956858;28;20031;-73
2023/04/05 10:42:05;;;;;;;15.07;8.85;;;;;;;9.38;41.76;102227.97;4955957;28;20027;-73
2023/04/05 10:44:32;;;;;;;16.00;8.98;;;;;;;9.50;42.59;102218.44;4956754;28;20133;-73
2023/04/05 10:46:59;;;;;;;15.70;9.20;;;;;;;9.63;42.02;102219.34;4956659;28;20027;-73
2023/04/05 10:49:31;;;;;;;13.63;8.85;;;;;;;9.81;42.74;102227.22;4953492;28;20547;-74
2023/04/05 10:51:57;;;;;;;13.75;9.20;;;;;;;9.90;39.81;102214.19;4955661;28;20086;-73
2023/04/05 10:54:22;;;;;;;18.30;9.55;;;;;;;9.83;40.87;102215.03;4956229;28;20023;-74
2023/04/05 10:56:48;;;;;;;12.40;8.85;;;;;;;9.82;40.06;102211.59;4965938;28;20038;-74
2023/04/05 10:59:15;;;;;;;15.38;9.70;;;;;;;9.91;42.56;102204.63;4959028;28;20034;-73
2023/04/05 11:01:40;;;;;;;14.40;9.20;;;;;;;10.06;43.45;102199.44;4956247;28;20101;-73
2023/04/05 11:04:14;;;;;;;14.57;8.73;;;;;;;9.98;39.39;102181.22;4961510;28;20150;-73
2023/04/05 11:06:41;;;;;;;13.50;8.82;;;;;;;10.13;39.42;102193.34;4975542;28;20030;-72
2023/04/05 11:09:17;;;;;;;16.40;9.32;;;;;;;10.27;41.90;102188.19;4974516;28;20038;-73
2023/04/05 11:11:47;;;;;;;12.23;8.75;;;;;;;10.49;42.66;102195.09;4973826;28;20355;-74
2023/04/05 11:14:33;;;;;;;15.60;9.27;;;;;;;10.53;40.46;102186.41;4975454;28;20022;-73